Chico, CA (95928)

9:02 PM PDT on October 20, 2014 (GMT -0700)
CINQUINI ORCHARDS | Change Station
CLOSE
Current Station
Personal Weather Station
Location: WEST SIDE OF CHICO, CA
Elevation: 151 ft
Nearby Weather Stations

Elev 151 ft 39.68 °N, 121.86 °W | Updated 1 hour ago

Overcast
Overcast
61.9 °F
Feels Like 61.9 °F
N
0.0
Wind Variable Wind from SE
Gusts 0.0 mph

Today
High -- | Low -- °F
--% Chance of Precip.
Yesterday
High -- | Low -- °F
Precip. -- in
7:22 AM 6:20 PM
Waning Crescent, 7% visible
Pressure 29.95 in
Visibility 10.0 miles
Clouds Overcast 7500 ft
Dew Point 51 °F
Humidity 67%
Rainfall 0.00 in
Snow Depth Not available.
UV 0 out of 12
Pollen 2.10 out of 12
Ozone Good
PM2.5 Good
Flu Activity Sporadic
METAR KCIC 210355Z AUTO 00000KT 10SM OVC075 18/08 A2995 RMK AO1

More Conditions Fewer Conditions

Pressure 29.95 in
Visibility 10.0 miles
Clouds Overcast 7500 ft
Dew Point 51 °F
Humidity 67%
Rainfall 0.00 in
Snow Depth Not available.
UV 0 out of 12
Pollen 2.10 out of 12
Ozone Good
PM2.5 Good
Flu Activity Sporadic
METAR KCIC 210355Z AUTO 00000KT 10SM OVC075 18/08 A2995 RMK AO1

More Conditions Fewer Conditions

10-Day Weather Forecast

Almanac

Astronomy

Oct. 20, 2014 Rise Set
Actual Time 7:22 AM PDT 6:20 PM PDT
Civil Twilight 6:55 AM PDT 6:47 PM PDT
Nautical Twilight 6:24 AM PDT 7:19 PM PDT
Astronomical Twilight 5:52 AM PDT 7:50 PM PDT
Moon 4:16 AM PDT (10/20) 4:45 PM PDT (10/20)
Length of Visible Light 11h 52m
Length of Day
10h 57m
Tomorrow will be 2m 27s shorter.
Waning Crescent, 7% of the Moon is Illuminated
Oct 21
Waning Crescent
Oct 23
New
Oct 30
First Quarter
Nov 6
Full
Nov 14
Last Quarter

Today's Extremes

State Highs State Lows

Community

WunderPhotos

Upload Photos

1,763,595 photos uploaded!

Nearby

Air Quality

  Air Quality AQ Index Pollutant
Yesterday Moderate
OZONE
Yesterday Good
PM2.5
Current Good
PM2.5
Current Good
OZONE
Monday Good
OZONE
Tuesday Good
OZONE
Wednesday Good
OZONE
Thursday Good
OZONE
Friday Good
OZONE
Saturday Good
OZONE

Snow Depth

Station Depth Elevation
Squaw Valley 0 in 8200 ft
Tahoe City Cross 1 in 6750 ft
Rubicon #2 0 in 7500 ft
Echo Peak 1 in 7800 ft
Heavenly Valley 0 in 8850 ft

Earthquake Activity

City Distance Mag. Time & Date
No recent earthquake activity has been reported nearby.
Minimum magnitude displayed is 2.5.

Coastal Water Temperatures

Place Temperature
No Stations Reporting

Nearby Weather Stations